createdAt,value
2019-02-28T00:00:54.674Z,9.77
2019-02-28T00:03:26.140Z,10.10
2019-02-28T00:05:53.467Z,9.73
2019-02-28T00:08:22.116Z,10.33
2019-02-28T00:10:50.601Z,10.60
2019-02-28T00:13:21.691Z,9.67
2019-02-28T00:15:49.527Z,9.20
2019-02-28T00:18:18.115Z,10.20
2019-02-28T00:20:46.678Z,9.50
2019-02-28T00:23:15.331Z,9.33
2019-02-28T00:25:43.883Z,9.83
2019-02-28T00:28:12.467Z,10.27
2019-02-28T00:30:41.539Z,10.40
2019-02-28T00:33:10.413Z,10.40
2019-02-28T00:35:38.961Z,10.20
2019-02-28T00:38:07.469Z,9.93
2019-02-28T00:40:38.508Z,10.27
2019-02-28T00:43:06.289Z,10.10
2019-02-28T00:45:37.192Z,9.50
2019-02-28T00:48:05.208Z,10.03
2019-02-28T00:50:33.762Z,9.30
2019-02-28T00:53:02.267Z,9.47
2019-02-28T00:55:30.826Z,10.10
2019-02-28T00:57:59.404Z,9.33
2019-02-28T01:00:27.982Z,8.93
2019-02-28T01:02:58.031Z,8.57
2019-02-28T01:05:26.702Z,8.17
2019-02-28T01:07:55.355Z,8.43
2019-02-28T01:10:24.472Z,8.77
2019-02-28T01:12:54.391Z,7.97
2019-02-28T01:15:23.211Z,8.57
2019-02-28T01:17:51.806Z,9.57
2019-02-28T01:20:20.361Z,8.97
2019-02-28T01:22:48.941Z,9.40
2019-02-28T01:25:18.547Z,9.67
2019-02-28T01:27:47.170Z,8.97
2019-02-28T01:30:16.482Z,9.07
2019-02-28T01:32:49.910Z,9.13
2019-02-28T01:35:15.883Z,9.30
2019-02-28T01:37:44.503Z,8.80
2019-02-28T01:40:16.981Z,8.23
2019-02-28T01:42:45.536Z,8.60
2019-02-28T01:45:14.495Z,9.00
2019-02-28T01:47:43.043Z,8.27
2019-02-28T01:50:13.068Z,8.07
2019-02-28T01:52:45.916Z,7.90
2019-02-28T01:55:12.200Z,7.37
2019-02-28T01:57:43.734Z,7.17
2019-02-28T02:00:14.137Z,7.13
2019-02-28T02:02:42.626Z,7.80
2019-02-28T02:05:11.291Z,7.43
2019-02-28T02:07:40.087Z,7.17
2019-02-28T02:10:13.355Z,7.27
2019-02-28T02:12:41.981Z,7.30
2019-02-28T02:15:11.915Z,7.77
2019-02-28T02:17:40.481Z,7.93
2019-02-28T02:20:14.297Z,9.37
2019-02-28T02:22:44.509Z,8.53
2019-02-28T02:25:13.231Z,8.73
2019-02-28T02:27:41.795Z,8.43
2019-02-28T02:30:16.350Z,7.67
2019-02-28T02:32:45.042Z,7.13
2019-02-28T02:35:15.178Z,7.37
2019-02-28T02:37:43.731Z,6.93
2019-02-28T02:40:14.388Z,6.27
2019-02-28T02:42:47.621Z,6.50
2019-02-28T02:45:14.736Z,6.27
2019-02-28T02:47:43.298Z,6.53
2019-02-28T02:50:15.359Z,5.73
2019-02-28T02:52:44.250Z,6.10
2019-02-28T02:55:13.505Z,5.50
2019-02-28T02:57:42.248Z,5.47
2019-02-28T03:00:18.830Z,8.27
2019-02-28T03:02:47.381Z,7.07
2019-02-28T03:05:16.169Z,7.27
2019-02-28T03:07:44.887Z,7.00
2019-02-28T03:10:17.568Z,6.40
2019-02-28T03:12:45.851Z,6.53
2019-02-28T03:15:16.574Z,6.03
2019-02-28T03:17:47.287Z,6.50
2019-02-28T03:20:15.733Z,6.93
2019-02-28T03:22:44.280Z,6.70
2019-02-28T03:25:14.502Z,6.47
2019-02-28T03:27:43.106Z,6.70
2019-02-28T03:30:27.766Z,6.30
2019-02-28T03:32:47.813Z,5.77
2019-02-28T03:35:16.470Z,6.40
2019-02-28T03:37:45.086Z,5.90
2019-02-28T03:40:16.532Z,5.83
2019-02-28T03:42:45.090Z,5.80
2019-02-28T03:45:16.788Z,5.50
2019-02-28T03:47:45.331Z,5.93
2019-02-28T03:50:14.251Z,6.13
2019-02-28T03:52:44.682Z,5.87
2019-02-28T03:55:14.316Z,5.67
2019-02-28T03:57:42.911Z,5.80
2019-02-28T04:00:17.205Z,5.57
2019-02-28T04:02:45.823Z,6.10
2019-02-28T04:05:14.475Z,5.97
2019-02-28T04:07:43.080Z,6.17
2019-02-28T04:10:16.703Z,6.07
2019-02-28T04:12:45.661Z,5.80
2019-02-28T04:15:18.886Z,6.60
2019-02-28T04:17:47.440Z,6.80
2019-02-28T04:20:16.154Z,6.43
2019-02-28T04:22:44.708Z,6.07
2019-02-28T04:25:13.438Z,6.67
2019-02-28T04:27:42.047Z,6.67
2019-02-28T04:30:14.819Z,6.57
2019-02-28T04:32:43.375Z,6.93
2019-02-28T04:35:12.415Z,6.93
2019-02-28T04:37:44.901Z,6.30
2019-02-28T04:40:13.505Z,6.60
2019-02-28T04:42:42.130Z,6.90
2019-02-28T04:45:12.651Z,6.80
2019-02-28T04:47:41.700Z,6.70
2019-02-28T04:50:12.215Z,6.60
2019-02-28T04:52:46.468Z,6.80
2019-02-28T04:55:11.605Z,7.30
2019-02-28T04:57:40.162Z,6.80
2019-02-28T05:00:13.900Z,6.90
2019-02-28T05:02:42.381Z,7.17
2019-02-28T05:05:12.786Z,7.10
2019-02-28T05:07:41.983Z,7.00
2019-02-28T05:10:11.504Z,7.17
2019-02-28T05:12:41.100Z,7.60
2019-02-28T05:15:12.074Z,6.67
2019-02-28T05:17:40.623Z,7.37
2019-02-28T05:20:12.066Z,7.40
2019-02-28T05:22:40.995Z,7.30
2019-02-28T05:25:10.607Z,7.60
2019-02-28T05:27:39.163Z,7.37
2019-02-28T05:30:18.464Z,7.67
2019-02-28T05:32:45.511Z,7.20
2019-02-28T05:35:14.089Z,7.33
2019-02-28T05:37:46.656Z,7.40
2019-02-28T05:40:15.456Z,7.30
2019-02-28T05:42:44.196Z,7.20
2019-02-28T05:45:14.725Z,8.43
2019-02-28T05:47:46.648Z,7.60
2019-02-28T05:50:16.851Z,7.53
2019-02-28T05:52:43.914Z,7.77
2019-02-28T05:55:12.551Z,7.43
2019-02-28T05:57:43.533Z,7.83
2019-02-28T06:00:14.071Z,8.60
2019-02-28T06:02:42.625Z,7.83
2019-02-28T06:05:11.942Z,7.63
2019-02-28T06:07:41.404Z,7.87
2019-02-28T06:10:12.025Z,8.30
2019-02-28T06:12:43.724Z,8.03
2019-02-28T06:15:13.289Z,8.23
2019-02-28T06:17:41.981Z,8.13
2019-02-28T06:20:11.834Z,8.30
2019-02-28T06:22:40.450Z,8.03
2019-02-28T06:25:11.251Z,8.77
2019-02-28T06:27:41.856Z,8.63
2019-02-28T06:30:14.763Z,7.77
2019-02-28T06:32:43.309Z,8.17
2019-02-28T06:35:15.976Z,7.97
2019-02-28T06:37:42.704Z,8.43
2019-02-28T06:40:17.701Z,8.07
2019-02-28T06:42:47.543Z,8.50
2019-02-28T06:45:18.462Z,8.50
2019-02-28T06:47:49.558Z,8.43
2019-02-28T06:50:17.484Z,9.23
2019-02-28T06:52:46.109Z,9.57
2019-02-28T06:55:27.329Z,9.80
2019-02-28T06:57:58.796Z,9.33
2019-02-28T07:00:26.197Z,9.00
2019-02-28T07:02:54.753Z,9.90
2019-02-28T07:05:25.753Z,9.03
2019-02-28T07:07:53.549Z,10.07
2019-02-28T07:10:22.142Z,9.43
2019-02-28T07:12:50.701Z,9.90
2019-02-28T07:15:23.630Z,10.10
2019-02-28T07:17:49.575Z,9.40
2019-02-28T07:20:19.097Z,10.50
2019-02-28T07:22:47.727Z,10.37
2019-02-28T07:25:16.390Z,9.90
2019-02-28T07:27:44.954Z,11.83
2019-02-28T07:30:20.953Z,11.43
2019-02-28T07:32:49.517Z,11.67
2019-02-28T07:35:18.173Z,11.43
2019-02-28T07:37:46.733Z,12.17
2019-02-28T07:40:18.761Z,12.77
2019-02-28T07:42:47.320Z,13.50
2019-02-28T07:45:16.381Z,13.23
2019-02-28T07:47:44.869Z,14.30
2019-02-28T07:50:17.300Z,14.70
2019-02-28T07:52:45.922Z,15.30
2019-02-28T07:55:16.053Z,15.67
2019-02-28T07:57:44.682Z,16.90
2019-02-28T08:00:18.801Z,16.77
2019-02-28T08:02:47.421Z,16.83
2019-02-28T08:05:16.272Z,16.47
2019-02-28T08:07:50.480Z,18.60
2019-02-28T08:10:26.925Z,17.80
2019-02-28T08:12:55.420Z,17.90
2019-02-28T08:15:25.350Z,18.80
2019-02-28T08:17:53.909Z,18.80
2019-02-28T08:20:22.663Z,20.90
2019-02-28T08:22:51.400Z,20.67
2019-02-28T08:25:20.168Z,22.13
2019-02-28T08:27:48.806Z,19.83
2019-02-28T08:30:32.365Z,20.10
2019-02-28T08:33:00.934Z,20.13
2019-02-28T08:35:33.960Z,20.37
2019-02-28T08:37:59.734Z,21.13
2019-02-28T08:40:28.912Z,20.70
2019-02-28T08:42:57.446Z,20.20
2019-02-28T08:45:26.109Z,20.63
2019-02-28T08:47:56.640Z,20.80
2019-02-28T08:50:25.962Z,20.50
2019-02-28T08:53:02.522Z,21.20
2019-02-28T08:55:31.181Z,22.37
2019-02-28T08:58:05.137Z,22.17
2019-02-28T09:00:32.832Z,22.00
2019-02-28T09:03:01.118Z,22.40
2019-02-28T09:05:30.252Z,22.17
2019-02-28T09:07:59.036Z,22.83
2019-02-28T09:10:27.953Z,22.67
2019-02-28T09:12:56.535Z,22.70
2019-02-28T09:15:29.845Z,23.77
2019-02-28T09:17:58.672Z,24.10
2019-02-28T09:20:25.807Z,23.63
2019-02-28T09:22:54.379Z,23.17
2019-02-28T09:25:24.211Z,23.60
2019-02-28T09:27:52.837Z,22.80
2019-02-28T09:30:30.635Z,23.13
2019-02-28T09:32:59.368Z,24.23
2019-02-28T09:35:28.025Z,23.30
2019-02-28T09:37:56.515Z,23.20
2019-02-28T09:40:25.833Z,24.00
2019-02-28T09:42:55.526Z,24.60
2019-02-28T09:45:26.558Z,24.90
2019-02-28T09:47:55.111Z,24.47
2019-02-28T09:50:24.153Z,24.87
2019-02-28T09:52:52.841Z,25.00
2019-02-28T09:55:21.498Z,24.70
2019-02-28T09:57:53.681Z,24.23
2019-02-28T10:00:27.497Z,24.07
2019-02-28T10:02:56.266Z,23.63
2019-02-28T10:05:24.994Z,23.47
2019-02-28T10:07:53.564Z,22.83
2019-02-28T10:10:23.707Z,23.20
2019-02-28T10:12:52.245Z,24.27
2019-02-28T10:15:24.338Z,24.73
2019-02-28T10:17:52.931Z,24.67
2019-02-28T10:20:27.037Z,24.47
2019-02-28T10:22:56.869Z,26.13
2019-02-28T10:25:25.786Z,27.50
2019-02-28T10:27:54.912Z,26.40
2019-02-28T10:30:31.642Z,27.80
2019-02-28T10:32:57.928Z,28.87
2019-02-28T10:35:26.599Z,28.43
2019-02-28T10:37:58.499Z,27.80
2019-02-28T10:40:27.237Z,26.87
2019-02-28T10:42:55.998Z,27.70
2019-02-28T10:45:25.494Z,27.67
2019-02-28T10:47:54.259Z,27.33
2019-02-28T10:50:33.610Z,28.07
2019-02-28T10:53:05.593Z,28.80
2019-02-28T10:55:33.574Z,28.47
2019-02-28T10:58:02.311Z,28.83
2019-02-28T11:00:36.607Z,28.13
2019-02-28T11:03:05.418Z,30.03
2019-02-28T11:05:38.875Z,29.63
2019-02-28T11:08:09.669Z,29.17
2019-02-28T11:10:40.737Z,28.97
2019-02-28T11:13:14.742Z,28.60
2019-02-28T11:15:47.966Z,28.90
2019-02-28T11:18:14.332Z,27.52
2019-02-28T11:20:43.171Z,29.27
2019-02-28T11:23:15.064Z,26.87
2019-02-28T11:25:42.773Z,28.65
2019-02-28T11:28:12.238Z,27.32
2019-02-28T11:30:44.833Z,27.37
2019-02-28T11:33:12.997Z,27.73
2019-02-28T11:35:41.497Z,26.15
2019-02-28T11:38:10.429Z,26.33
2019-02-28T11:40:40.479Z,26.37
2019-02-28T11:43:10.614Z,27.17
2019-02-28T11:45:42.077Z,26.25
2019-02-28T11:48:19.103Z,27.37
2019-02-28T11:50:44.911Z,26.12
2019-02-28T11:53:13.686Z,26.90
2019-02-28T11:55:42.499Z,27.62
2019-02-28T11:58:16.293Z,27.70
2019-02-28T12:00:41.755Z,26.23
2019-02-28T12:03:10.410Z,26.70
2019-02-28T12:05:38.970Z,27.48
2019-02-28T12:08:10.476Z,26.90
2019-02-28T12:10:38.081Z,26.15
2019-02-28T12:13:06.909Z,26.57
2019-02-28T12:15:40.381Z,26.10
2019-02-28T12:18:08.971Z,26.73
2019-02-28T12:20:37.526Z,26.67
2019-02-28T12:23:06.253Z,28.27
2019-02-28T12:25:34.744Z,27.57
2019-02-28T12:28:06.349Z,27.17
2019-02-28T12:30:34.888Z,26.57
2019-02-28T12:33:03.485Z,26.52
2019-02-28T12:35:37.412Z,26.85
2019-02-28T12:38:02.429Z,28.30
2019-02-28T12:40:33.336Z,27.25
2019-02-28T12:43:05.343Z,27.05
2019-02-28T12:45:36.225Z,28.47
2019-02-28T12:48:05.361Z,28.73
2019-02-28T12:50:33.987Z,26.55
2019-02-28T12:53:02.578Z,27.65
2019-02-28T12:55:31.146Z,26.87
2019-02-28T12:57:59.802Z,29.37
2019-02-28T13:00:31.468Z,28.32
2019-02-28T13:03:00.173Z,30.00
2019-02-28T13:05:28.810Z,28.92
2019-02-28T13:07:57.406Z,29.05
2019-02-28T13:10:27.966Z,28.87
2019-02-28T13:13:05.797Z,28.73
2019-02-28T13:15:26.878Z,29.90
2019-02-28T13:17:55.467Z,29.37
2019-02-28T13:20:33.740Z,29.77
2019-02-28T13:23:01.096Z,31.30
2019-02-28T13:25:29.951Z,31.13
2019-02-28T13:27:58.593Z,30.13
2019-02-28T13:30:28.110Z,30.03
2019-02-28T13:32:56.817Z,31.27
2019-02-28T13:35:31.422Z,31.90
2019-02-28T13:38:00.253Z,31.13
2019-02-28T13:40:28.953Z,32.37
2019-02-28T13:42:57.557Z,31.73
2019-02-28T13:45:26.547Z,31.53
2019-02-28T13:47:55.202Z,31.80
2019-02-28T13:50:28.473Z,32.30
2019-02-28T13:52:56.994Z,31.53
2019-02-28T13:55:25.639Z,31.50
2019-02-28T13:57:54.292Z,31.53
2019-02-28T14:00:25.637Z,32.07
2019-02-28T14:02:56.161Z,31.53
2019-02-28T14:05:24.863Z,31.70
2019-02-28T14:07:53.521Z,31.13
2019-02-28T14:10:23.721Z,31.13
2019-02-28T14:12:57.113Z,30.50
2019-02-28T14:15:32.553Z,32.00
2019-02-28T14:18:01.146Z,32.50
2019-02-28T14:20:29.705Z,30.83
2019-02-28T14:22:58.539Z,31.40
2019-02-28T14:25:27.169Z,31.50
2019-02-28T14:27:56.861Z,30.17
2019-02-28T14:30:26.730Z,30.23
2019-02-28T14:32:55.374Z,30.70
2019-02-28T14:35:27.944Z,30.20
2019-02-28T14:37:56.909Z,30.60
2019-02-28T14:40:25.874Z,30.10
2019-02-28T14:42:54.464Z,29.53
2019-02-28T14:45:25.634Z,30.67
2019-02-28T14:47:57.174Z,31.00
2019-02-28T14:50:24.601Z,30.90
2019-02-28T14:52:57.617Z,31.20
2019-02-28T14:55:29.258Z,31.60
2019-02-28T14:57:56.983Z,30.40
2019-02-28T15:00:52.342Z,32.50
2019-02-28T15:03:20.942Z,31.23
2019-02-28T15:05:52.418Z,31.27
2019-02-28T15:08:19.886Z,31.27
2019-02-28T15:10:48.614Z,32.03
2019-02-28T15:13:17.278Z,30.67
2019-02-28T15:15:45.966Z,31.97
2019-02-28T15:18:14.831Z,31.83
2019-02-28T15:20:43.439Z,31.73
2019-02-28T15:23:12.076Z,31.70
2019-02-28T15:25:40.661Z,30.97
2019-02-28T15:28:10.633Z,31.47
2019-02-28T15:30:40.778Z,31.13
2019-02-28T15:33:09.338Z,30.67
2019-02-28T15:35:37.995Z,31.07
2019-02-28T15:38:09.347Z,29.83
2019-02-28T15:40:40.525Z,32.43
2019-02-28T15:43:09.266Z,31.03
2019-02-28T15:45:38.101Z,31.40
2019-02-28T15:48:06.735Z,32.00
2019-02-28T15:50:35.318Z,31.47
2019-02-28T15:53:04.117Z,32.33
2019-02-28T15:55:35.044Z,32.77
2019-02-28T15:58:05.908Z,31.80
2019-02-28T16:00:35.227Z,31.37
2019-02-28T16:03:03.878Z,31.53
2019-02-28T16:05:32.642Z,33.57
2019-02-28T16:08:01.257Z,32.23
2019-02-28T16:10:33.602Z,31.87
2019-02-28T16:13:02.163Z,32.20
2019-02-28T16:15:30.818Z,31.20
2019-02-28T16:17:59.372Z,32.37
2019-02-28T16:20:31.928Z,32.63
2019-02-28T16:22:58.945Z,32.60
2019-02-28T16:25:30.227Z,32.20
2019-02-28T16:27:59.056Z,32.87
2019-02-28T16:30:28.846Z,34.87
2019-02-28T16:32:57.993Z,35.67
2019-02-28T16:35:26.623Z,33.13
2019-02-28T16:37:55.275Z,33.17
2019-02-28T16:40:27.048Z,33.43
2019-02-28T16:42:55.774Z,33.80
2019-02-28T16:45:27.929Z,32.73
2019-02-28T16:47:59.499Z,34.27
2019-02-28T16:50:26.885Z,34.33
2019-02-28T16:52:55.471Z,34.53
2019-02-28T16:55:23.977Z,33.70
2019-02-28T16:57:52.651Z,33.33
2019-02-28T17:00:21.823Z,33.83
2019-02-28T17:02:50.413Z,34.43
2019-02-28T17:05:18.967Z,35.00
2019-02-28T17:07:47.569Z,35.77
2019-02-28T17:10:36.246Z,34.53
2019-02-28T17:13:19.424Z,33.57
2019-02-28T17:16:01.425Z,34.53
2019-02-28T17:18:30.623Z,35.10
2019-02-28T17:20:59.188Z,34.60
2019-02-28T17:23:27.771Z,33.43
2019-02-28T17:25:57.380Z,34.63
2019-02-28T17:28:33.938Z,35.83
2019-02-28T17:31:11.557Z,35.97
2019-02-28T17:33:43.304Z,35.53
2019-02-28T17:36:11.675Z,34.47
2019-02-28T17:38:41.124Z,35.97
2019-02-28T17:41:11.125Z,35.70
2019-02-28T17:43:40.288Z,35.80
2019-02-28T17:46:16.459Z,36.57
2019-02-28T17:48:57.139Z,35.80
2019-02-28T17:51:43.782Z,35.77
2019-02-28T17:54:33.469Z,37.40
2019-02-28T17:57:07.795Z,36.27
2019-02-28T17:59:54.280Z,35.93
2019-02-28T18:02:44.210Z,34.83
2019-02-28T18:05:36.471Z,34.70
2019-02-28T18:08:28.172Z,36.63
2019-02-28T18:11:08.754Z,34.70
2019-02-28T18:13:56.131Z,34.03
2019-02-28T18:16:49.202Z,35.13
2019-02-28T18:19:21.569Z,35.37
2019-02-28T18:22:16.007Z,35.27
2019-02-28T18:25:01.528Z,33.23
2019-02-28T18:27:47.972Z,36.73
2019-02-28T18:30:54.609Z,34.30
2019-02-28T18:33:23.192Z,33.60
2019-02-28T18:35:51.782Z,34.47
2019-02-28T18:38:20.354Z,33.50
2019-02-28T18:40:49.004Z,33.83
2019-02-28T18:43:17.567Z,33.80
2019-02-28T18:45:46.146Z,33.37
2019-02-28T18:48:17.515Z,32.93
2019-02-28T18:50:44.942Z,32.93
2019-02-28T18:53:13.518Z,32.67
2019-02-28T18:55:42.121Z,32.63
2019-02-28T18:58:10.668Z,32.33
2019-02-28T19:00:39.264Z,32.90
2019-02-28T19:03:07.958Z,32.43
2019-02-28T19:05:36.543Z,32.67
2019-02-28T19:08:05.194Z,33.00
2019-02-28T19:10:33.828Z,32.03
2019-02-28T19:13:02.421Z,31.60
2019-02-28T19:15:31.055Z,32.13
2019-02-28T19:17:59.655Z,31.47
2019-02-28T19:20:28.139Z,31.83
2019-02-28T19:22:56.658Z,31.40
2019-02-28T19:25:25.215Z,31.30
2019-02-28T19:27:53.736Z,32.20
2019-02-28T19:30:22.300Z,32.97
2019-02-28T19:32:50.888Z,30.87
2019-02-28T19:35:19.444Z,31.97
2019-02-28T19:37:48.149Z,32.30
2019-02-28T19:40:16.782Z,31.47
2019-02-28T19:42:45.366Z,31.50
2019-02-28T19:45:25.979Z,31.37
2019-02-28T19:47:54.574Z,30.63
2019-02-28T19:50:23.134Z,29.97
2019-02-28T19:52:51.723Z,32.27
2019-02-28T19:55:20.375Z,33.77
2019-02-28T19:57:48.966Z,32.93
2019-02-28T20:00:18.906Z,33.17
2019-02-28T20:02:47.642Z,36.30
2019-02-28T20:05:16.272Z,35.07
2019-02-28T20:07:44.860Z,34.70
2019-02-28T20:10:18.522Z,33.33
2019-02-28T20:12:47.181Z,34.50
2019-02-28T20:15:18.123Z,34.80
2019-02-28T20:17:46.639Z,34.50
2019-02-28T20:20:18.206Z,32.67
2019-02-28T20:22:46.793Z,33.23
2019-02-28T20:25:16.664Z,32.87
2019-02-28T20:27:45.317Z,32.73
2019-02-28T20:30:18.838Z,34.40
2019-02-28T20:32:47.432Z,34.10
2019-02-28T20:35:25.914Z,33.00
2019-02-28T20:37:47.101Z,33.50
2019-02-28T20:40:24.026Z,34.33
2019-02-28T20:42:52.610Z,31.40
2019-02-28T20:45:21.112Z,32.97
2019-02-28T20:47:49.690Z,33.57
2019-02-28T20:50:24.106Z,35.00
2019-02-28T20:52:52.714Z,34.57
2019-02-28T20:55:21.276Z,34.03
2019-02-28T20:57:50.015Z,35.77
2019-02-28T21:03:08.290Z,34.30
2019-02-28T21:05:36.928Z,35.47
2019-02-28T21:08:05.592Z,35.53
2019-02-28T21:10:34.222Z,35.70
2019-02-28T21:13:02.739Z,34.40
2019-02-28T21:15:31.444Z,34.57
2019-02-28T21:18:00.040Z,34.40
2019-02-28T21:20:28.639Z,34.07
2019-02-28T21:22:57.347Z,34.87
2019-02-28T21:25:25.905Z,34.40
2019-02-28T21:27:54.461Z,34.40
2019-02-28T21:30:26.999Z,35.20
2019-02-28T21:32:55.646Z,35.70
2019-02-28T21:35:25.096Z,34.73
2019-02-28T21:37:53.628Z,34.93
2019-02-28T21:40:22.842Z,34.77
2019-02-28T21:42:51.393Z,34.90
2019-02-28T21:45:24.991Z,34.37
2019-02-28T21:47:53.567Z,36.67
2019-02-28T21:50:22.316Z,35.20
2019-02-28T21:52:50.869Z,36.07
2019-02-28T21:55:19.507Z,36.53
2019-02-28T21:57:48.072Z,36.03
2019-02-28T22:00:32.452Z,37.57
2019-02-28T22:03:01.017Z,36.03
2019-02-28T22:05:29.599Z,36.97
2019-02-28T22:07:58.332Z,35.60
2019-02-28T22:10:26.922Z,37.30
2019-02-28T22:12:55.522Z,36.47
2019-02-28T22:15:25.002Z,37.57
2019-02-28T22:17:53.631Z,38.10
2019-02-28T22:20:22.235Z,38.57
2019-02-28T22:22:50.808Z,37.27
2019-02-28T22:25:19.534Z,37.00
2019-02-28T22:27:48.098Z,35.57
2019-02-28T22:30:39.286Z,36.07
2019-02-28T22:33:18.149Z,36.57
2019-02-28T22:35:48.379Z,36.40
2019-02-28T22:38:16.939Z,38.10
2019-02-28T22:40:45.503Z,36.73
2019-02-28T22:43:14.136Z,38.20
2019-02-28T22:45:42.735Z,37.97
2019-02-28T22:48:11.294Z,37.67
2019-02-28T22:50:39.877Z,37.47
2019-02-28T22:53:08.438Z,37.87
2019-02-28T22:55:37.034Z,37.47
2019-02-28T22:58:10.566Z,37.30
2019-02-28T23:00:52.470Z,39.20
2019-02-28T23:03:21.403Z,39.57
2019-02-28T23:05:50.027Z,39.47
2019-02-28T23:08:18.606Z,39.33
2019-02-28T23:10:47.260Z,40.23
2019-02-28T23:13:15.747Z,37.70
2019-02-28T23:15:44.338Z,37.43
2019-02-28T23:18:12.967Z,38.87
2019-02-28T23:20:41.555Z,39.67
2019-02-28T23:23:10.115Z,37.60
2019-02-28T23:25:38.770Z,38.77
2019-02-28T23:28:24.727Z,41.10
2019-02-28T23:31:13.079Z,39.60
2019-02-28T23:33:41.636Z,40.63
2019-02-28T23:36:10.234Z,39.23
2019-02-28T23:38:38.793Z,39.27
2019-02-28T23:41:07.404Z,40.97
2019-02-28T23:43:35.947Z,40.23
2019-02-28T23:46:04.469Z,39.97
2019-02-28T23:48:33.083Z,39.23
2019-02-28T23:51:01.650Z,40.97
2019-02-28T23:53:30.244Z,39.10
2019-02-28T23:55:58.810Z,40.07
2019-02-28T23:58:27.454Z,39.97
